sensor_id;sensor_type;location;lat;lon;timestamp;temperature;humidity
20376;DHT22;10347;51.828;6.466;2023-04-03T00:00:04;7.60;99.90
20376;DHT22;10347;51.828;6.466;2023-04-03T00:02:30;7.60;99.90
20376;DHT22;10347;51.828;6.466;2023-04-03T00:04:56;7.60;99.90
20376;DHT22;10347;51.828;6.466;2023-04-03T00:07:21;7.50;99.90
20376;DHT22;10347;51.828;6.466;2023-04-03T00:09:47;7.50;99.90
20376;DHT22;10347;51.828;6.466;2023-04-03T00:12:13;7.50;99.90
20376;DHT22;10347;51.828;6.466;2023-04-03T00:14:38;7.50;99.90
20376;DHT22;10347;51.828;6.466;2023-04-03T00:17:04;7.40;99.90
20376;DHT22;10347;51.828;6.466;2023-04-03T00:19:29;7.40;99.90
20376;DHT22;10347;51.828;6.466;2023-04-03T00:21:55;7.40;99.90
20376;DHT22;10347;51.828;6.466;2023-04-03T00:24:21;7.40;99.90
20376;DHT22;10347;51.828;6.466;2023-04-03T00:26:46;7.40;99.90
20376;DHT22;10347;51.828;6.466;2023-04-03T00:29:12;7.30;99.90
20376;DHT22;10347;51.828;6.466;2023-04-03T00:31:37;7.30;99.90
20376;DHT22;10347;51.828;6.466;2023-04-03T00:34:03;7.30;99.90
20376;DHT22;10347;51.828;6.466;2023-04-03T00:36:28;7.30;99.90
20376;DHT22;10347;51.828;6.466;2023-04-03T00:38:54;7.20;99.90
20376;DHT22;10347;51.828;6.466;2023-04-03T00:41:20;7.20;99.90
20376;DHT22;10347;51.828;6.466;2023-04-03T00:43:46;7.20;99.90
20376;DHT22;10347;51.828;6.466;2023-04-03T00:46:12;7.20;99.90
20376;DHT22;10347;51.828;6.466;2023-04-03T00:48:41;7.20;99.90
20376;DHT22;10347;51.828;6.466;2023-04-03T00:51:12;7.20;99.90
20376;DHT22;10347;51.828;6.466;2023-04-03T00:53:47;7.10;99.90
20376;DHT22;10347;51.828;6.466;2023-04-03T00:56:16;7.10;99.90
20376;DHT22;10347;51.828;6.466;2023-04-03T00:58:51;7.10;99.90
20376;DHT22;10347;51.828;6.466;2023-04-03T01:01:23;7.10;99.90
20376;DHT22;10347;51.828;6.466;2023-04-03T01:03:49;7.00;99.90
20376;DHT22;10347;51.828;6.466;2023-04-03T01:06:17;7.00;99.90
20376;DHT22;10347;51.828;6.466;2023-04-03T01:08:44;7.00;99.90
20376;DHT22;10347;51.828;6.466;2023-04-03T01:11:10;7.00;99.90
20376;DHT22;10347;51.828;6.466;2023-04-03T01:13:35;7.00;99.90
20376;DHT22;10347;51.828;6.466;2023-04-03T01:16:03;7.00;99.90
20376;DHT22;10347;51.828;6.466;2023-04-03T01:18:29;7.00;99.90
20376;DHT22;10347;51.828;6.466;2023-04-03T01:24:05;7.00;99.90
20376;DHT22;10347;51.828;6.466;2023-04-03T01:26:34;6.90;99.90
20376;DHT22;10347;51.828;6.466;2023-04-03T01:29:01;6.90;99.90
20376;DHT22;10347;51.828;6.466;2023-04-03T01:31:32;6.80;99.90
20376;DHT22;10347;51.828;6.466;2023-04-03T01:33:59;6.80;99.90
20376;DHT22;10347;51.828;6.466;2023-04-03T01:36:27;6.80;99.90
20376;DHT22;10347;51.828;6.466;2023-04-03T01:38:54;6.90;99.90
20376;DHT22;10347;51.828;6.466;2023-04-03T01:41:20;6.80;99.90
20376;DHT22;10347;51.828;6.466;2023-04-03T01:43:47;6.80;99.90
20376;DHT22;10347;51.828;6.466;2023-04-03T01:46:14;6.80;99.90
20376;DHT22;10347;51.828;6.466;2023-04-03T01:48:40;6.90;99.90
20376;DHT22;10347;51.828;6.466;2023-04-03T01:51:05;6.80;99.90
20376;DHT22;10347;51.828;6.466;2023-04-03T01:53:31;6.80;99.90
20376;DHT22;10347;51.828;6.466;2023-04-03T01:55:56;6.80;99.90
20376;DHT22;10347;51.828;6.466;2023-04-03T01:58:22;6.80;99.90
20376;DHT22;10347;51.828;6.466;2023-04-03T02:00:48;6.70;99.90
20376;DHT22;10347;51.828;6.466;2023-04-03T02:03:13;6.70;99.90
20376;DHT22;10347;51.828;6.466;2023-04-03T02:05:40;6.70;99.90
20376;DHT22;10347;51.828;6.466;2023-04-03T02:08:05;6.70;99.90
20376;DHT22;10347;51.828;6.466;2023-04-03T02:10:31;6.70;99.90
20376;DHT22;10347;51.828;6.466;2023-04-03T02:12:57;6.70;99.90
20376;DHT22;10347;51.828;6.466;2023-04-03T02:15:22;6.60;99.90
20376;DHT22;10347;51.828;6.466;2023-04-03T02:17:48;6.60;99.90
20376;DHT22;10347;51.828;6.466;2023-04-03T02:20:14;6.60;99.90
20376;DHT22;10347;51.828;6.466;2023-04-03T02:22:39;6.60;99.90
20376;DHT22;10347;51.828;6.466;2023-04-03T02:25:05;6.50;99.90
20376;DHT22;10347;51.828;6.466;2023-04-03T02:27:31;6.50;99.90
20376;DHT22;10347;51.828;6.466;2023-04-03T02:29:57;6.50;99.90
20376;DHT22;10347;51.828;6.466;2023-04-03T02:32:22;6.50;99.90
20376;DHT22;10347;51.828;6.466;2023-04-03T02:34:48;6.50;99.90
20376;DHT22;10347;51.828;6.466;2023-04-03T02:37:14;6.50;99.90
20376;DHT22;10347;51.828;6.466;2023-04-03T02:39:39;6.50;99.90
20376;DHT22;10347;51.828;6.466;2023-04-03T02:42:05;6.50;99.90
20376;DHT22;10347;51.828;6.466;2023-04-03T02:44:30;6.50;99.90
20376;DHT22;10347;51.828;6.466;2023-04-03T02:46:56;6.50;99.90
20376;DHT22;10347;51.828;6.466;2023-04-03T02:49:22;6.50;99.90
20376;DHT22;10347;51.828;6.466;2023-04-03T02:51:47;6.50;99.90
20376;DHT22;10347;51.828;6.466;2023-04-03T02:54:13;6.50;99.90
20376;DHT22;10347;51.828;6.466;2023-04-03T02:56:38;6.40;99.90
20376;DHT22;10347;51.828;6.466;2023-04-03T02:59:04;6.40;99.90
20376;DHT22;10347;51.828;6.466;2023-04-03T03:01:30;6.40;99.90
20376;DHT22;10347;51.828;6.466;2023-04-03T03:04:01;6.30;99.90
20376;DHT22;10347;51.828;6.466;2023-04-03T03:06:26;6.30;99.90
20376;DHT22;10347;51.828;6.466;2023-04-03T03:08:52;6.30;99.90
20376;DHT22;10347;51.828;6.466;2023-04-03T03:11:18;6.30;99.90
20376;DHT22;10347;51.828;6.466;2023-04-03T03:13:44;6.20;99.90
20376;DHT22;10347;51.828;6.466;2023-04-03T03:16:10;6.20;99.90
20376;DHT22;10347;51.828;6.466;2023-04-03T03:18:35;6.20;99.90
20376;DHT22;10347;51.828;6.466;2023-04-03T03:21:02;6.20;99.90
20376;DHT22;10347;51.828;6.466;2023-04-03T03:23:30;6.20;99.90
20376;DHT22;10347;51.828;6.466;2023-04-03T03:26:05;6.20;99.90
20376;DHT22;10347;51.828;6.466;2023-04-03T03:28:32;6.10;99.90
20376;DHT22;10347;51.828;6.466;2023-04-03T03:30:58;6.10;99.90
20376;DHT22;10347;51.828;6.466;2023-04-03T03:33:25;6.10;99.90
20376;DHT22;10347;51.828;6.466;2023-04-03T03:35:52;6.10;99.90
20376;DHT22;10347;51.828;6.466;2023-04-03T03:38:18;6.10;99.90
20376;DHT22;10347;51.828;6.466;2023-04-03T03:40:43;6.10;99.90
20376;DHT22;10347;51.828;6.466;2023-04-03T03:43:09;6.00;99.90
20376;DHT22;10347;51.828;6.466;2023-04-03T03:45:34;6.00;99.90
20376;DHT22;10347;51.828;6.466;2023-04-03T03:48:00;6.00;99.90
20376;DHT22;10347;51.828;6.466;2023-04-03T03:50:26;6.00;99.90
20376;DHT22;10347;51.828;6.466;2023-04-03T03:52:52;6.00;99.90
20376;DHT22;10347;51.828;6.466;2023-04-03T03:55:17;6.00;99.90
20376;DHT22;10347;51.828;6.466;2023-04-03T03:57:43;6.00;99.90
20376;DHT22;10347;51.828;6.466;2023-04-03T04:00:09;6.00;99.90
20376;DHT22;10347;51.828;6.466;2023-04-03T04:02:35;6.00;99.90
20376;DHT22;10347;51.828;6.466;2023-04-03T04:05:00;5.90;99.90
20376;DHT22;10347;51.828;6.466;2023-04-03T04:07:26;5.90;99.90
20376;DHT22;10347;51.828;6.466;2023-04-03T04:09:53;5.90;99.90
20376;DHT22;10347;51.828;6.466;2023-04-03T04:12:19;5.90;99.90
20376;DHT22;10347;51.828;6.466;2023-04-03T04:14:45;5.80;99.90
20376;DHT22;10347;51.828;6.466;2023-04-03T04:17:12;5.80;99.90
20376;DHT22;10347;51.828;6.466;2023-04-03T04:19:38;5.80;99.90
20376;DHT22;10347;51.828;6.466;2023-04-03T04:22:03;5.90;99.90
20376;DHT22;10347;51.828;6.466;2023-04-03T04:24:29;5.90;99.90
20376;DHT22;10347;51.828;6.466;2023-04-03T04:26:54;5.90;99.90
20376;DHT22;10347;51.828;6.466;2023-04-03T04:29:20;5.90;99.90
20376;DHT22;10347;51.828;6.466;2023-04-03T04:31:45;5.90;99.90
20376;DHT22;10347;51.828;6.466;2023-04-03T04:34:11;5.80;99.90
20376;DHT22;10347;51.828;6.466;2023-04-03T04:36:38;5.80;99.90
20376;DHT22;10347;51.828;6.466;2023-04-03T04:39:04;5.80;99.90
20376;DHT22;10347;51.828;6.466;2023-04-03T04:41:30;5.80;99.90
20376;DHT22;10347;51.828;6.466;2023-04-03T04:43:56;5.80;99.90
20376;DHT22;10347;51.828;6.466;2023-04-03T04:46:22;5.70;99.90
20376;DHT22;10347;51.828;6.466;2023-04-03T04:48:48;5.70;99.90
20376;DHT22;10347;51.828;6.466;2023-04-03T04:51:14;5.60;99.90
20376;DHT22;10347;51.828;6.466;2023-04-03T04:53:40;5.60;99.90
20376;DHT22;10347;51.828;6.466;2023-04-03T04:56:06;5.60;99.90
20376;DHT22;10347;51.828;6.466;2023-04-03T04:58:32;5.50;99.90
20376;DHT22;10347;51.828;6.466;2023-04-03T05:01:01;5.50;99.90
20376;DHT22;10347;51.828;6.466;2023-04-03T05:03:27;5.50;99.90
20376;DHT22;10347;51.828;6.466;2023-04-03T05:05:52;5.50;99.90
20376;DHT22;10347;51.828;6.466;2023-04-03T05:08:18;5.50;99.90
20376;DHT22;10347;51.828;6.466;2023-04-03T05:10:45;5.50;99.90
20376;DHT22;10347;51.828;6.466;2023-04-03T05:13:11;5.50;99.90
20376;DHT22;10347;51.828;6.466;2023-04-03T05:15:36;5.50;99.90
20376;DHT22;10347;51.828;6.466;2023-04-03T05:18:02;5.50;99.90
20376;DHT22;10347;51.828;6.466;2023-04-03T05:20:28;5.50;99.90
20376;DHT22;10347;51.828;6.466;2023-04-03T05:22:53;5.40;99.90
20376;DHT22;10347;51.828;6.466;2023-04-03T05:25:19;5.30;99.90
20376;DHT22;10347;51.828;6.466;2023-04-03T05:27:44;5.30;99.90
20376;DHT22;10347;51.828;6.466;2023-04-03T05:30:10;5.30;99.90
20376;DHT22;10347;51.828;6.466;2023-04-03T05:32:36;5.30;99.90
20376;DHT22;10347;51.828;6.466;2023-04-03T05:35:02;5.20;99.90
20376;DHT22;10347;51.828;6.466;2023-04-03T05:37:27;5.20;99.90
20376;DHT22;10347;51.828;6.466;2023-04-03T05:39:53;5.20;99.90
20376;DHT22;10347;51.828;6.466;2023-04-03T05:42:18;5.30;99.90
20376;DHT22;10347;51.828;6.466;2023-04-03T05:44:44;5.20;99.90
20376;DHT22;10347;51.828;6.466;2023-04-03T05:47:12;5.10;99.90
20376;DHT22;10347;51.828;6.466;2023-04-03T05:49:37;5.10;99.90
20376;DHT22;10347;51.828;6.466;2023-04-03T05:52:08;5.10;99.90
20376;DHT22;10347;51.828;6.466;2023-04-03T05:54:35;5.10;99.90
20376;DHT22;10347;51.828;6.466;2023-04-03T05:57:00;5.10;99.90
20376;DHT22;10347;51.828;6.466;2023-04-03T05:59:26;5.10;99.90
20376;DHT22;10347;51.828;6.466;2023-04-03T06:01:52;5.10;99.90
20376;DHT22;10347;51.828;6.466;2023-04-03T06:04:17;5.00;99.90
20376;DHT22;10347;51.828;6.466;2023-04-03T06:06:48;5.00;99.90
20376;DHT22;10347;51.828;6.466;2023-04-03T06:09:15;4.90;99.90
20376;DHT22;10347;51.828;6.466;2023-04-03T06:11:42;4.90;99.90
20376;DHT22;10347;51.828;6.466;2023-04-03T06:14:08;4.90;99.90
20376;DHT22;10347;51.828;6.466;2023-04-03T06:16:34;4.90;99.90
20376;DHT22;10347;51.828;6.466;2023-04-03T06:19:00;4.90;99.90
20376;DHT22;10347;51.828;6.466;2023-04-03T06:21:26;4.90;99.90
20376;DHT22;10347;51.828;6.466;2023-04-03T06:23:51;4.90;99.90
20376;DHT22;10347;51.828;6.466;2023-04-03T06:26:17;4.90;99.90
20376;DHT22;10347;51.828;6.466;2023-04-03T06:28:43;4.90;99.90
20376;DHT22;10347;51.828;6.466;2023-04-03T06:31:08;4.80;99.90
20376;DHT22;10347;51.828;6.466;2023-04-03T06:33:34;4.90;99.90
20376;DHT22;10347;51.828;6.466;2023-04-03T06:36:03;4.80;99.90
20376;DHT22;10347;51.828;6.466;2023-04-03T06:38:29;4.80;99.90
20376;DHT22;10347;51.828;6.466;2023-04-03T06:40:54;4.90;99.90
20376;DHT22;10347;51.828;6.466;2023-04-03T06:43:21;4.90;99.90
20376;DHT22;10347;51.828;6.466;2023-04-03T06:45:47;4.90;99.90
20376;DHT22;10347;51.828;6.466;2023-04-03T06:48:12;4.90;99.90
20376;DHT22;10347;51.828;6.466;2023-04-03T06:50:38;4.90;99.90
20376;DHT22;10347;51.828;6.466;2023-04-03T06:53:04;4.90;99.90
20376;DHT22;10347;51.828;6.466;2023-04-03T06:55:29;5.00;99.90
20376;DHT22;10347;51.828;6.466;2023-04-03T06:57:55;5.00;99.90
20376;DHT22;10347;51.828;6.466;2023-04-03T07:00:21;5.00;99.90
20376;DHT22;10347;51.828;6.466;2023-04-03T07:02:47;5.00;99.90
20376;DHT22;10347;51.828;6.466;2023-04-03T07:05:12;5.00;99.90
20376;DHT22;10347;51.828;6.466;2023-04-03T07:07:38;4.90;99.90
20376;DHT22;10347;51.828;6.466;2023-04-03T07:10:05;5.00;99.90
20376;DHT22;10347;51.828;6.466;2023-04-03T07:12:31;5.00;99.90
20376;DHT22;10347;51.828;6.466;2023-04-03T07:14:57;5.10;99.90
20376;DHT22;10347;51.828;6.466;2023-04-03T07:17:23;5.10;99.90
20376;DHT22;10347;51.828;6.466;2023-04-03T07:19:49;5.10;99.90
20376;DHT22;10347;51.828;6.466;2023-04-03T07:22:14;5.10;99.90
20376;DHT22;10347;51.828;6.466;2023-04-03T07:24:40;5.10;99.90
20376;DHT22;10347;51.828;6.466;2023-04-03T07:27:06;5.10;99.90
20376;DHT22;10347;51.828;6.466;2023-04-03T07:29:33;5.20;99.90
20376;DHT22;10347;51.828;6.466;2023-04-03T07:31:59;5.20;99.90
20376;DHT22;10347;51.828;6.466;2023-04-03T07:34:25;5.20;99.90
20376;DHT22;10347;51.828;6.466;2023-04-03T07:36:50;5.20;99.90
20376;DHT22;10347;51.828;6.466;2023-04-03T07:39:16;5.20;99.90
20376;DHT22;10347;51.828;6.466;2023-04-03T07:41:41;5.30;99.90
20376;DHT22;10347;51.828;6.466;2023-04-03T07:44:07;5.30;99.90
20376;DHT22;10347;51.828;6.466;2023-04-03T07:46:35;5.30;99.90
20376;DHT22;10347;51.828;6.466;2023-04-03T07:49:00;5.40;99.90
20376;DHT22;10347;51.828;6.466;2023-04-03T07:51:26;5.40;99.90
20376;DHT22;10347;51.828;6.466;2023-04-03T07:53:53;5.40;99.90
20376;DHT22;10347;51.828;6.466;2023-04-03T07:56:19;5.40;99.90
20376;DHT22;10347;51.828;6.466;2023-04-03T07:58:46;5.50;99.90
20376;DHT22;10347;51.828;6.466;2023-04-03T08:01:12;5.60;99.90
20376;DHT22;10347;51.828;6.466;2023-04-03T08:03:38;5.60;99.90
20376;DHT22;10347;51.828;6.466;2023-04-03T08:06:05;5.60;99.90
20376;DHT22;10347;51.828;6.466;2023-04-03T08:08:32;5.60;99.90
20376;DHT22;10347;51.828;6.466;2023-04-03T08:10:59;5.70;99.90
20376;DHT22;10347;51.828;6.466;2023-04-03T08:13:26;5.70;99.90
20376;DHT22;10347;51.828;6.466;2023-04-03T08:15:51;5.80;99.90
20376;DHT22;10347;51.828;6.466;2023-04-03T08:18:18;5.80;99.90
20376;DHT22;10347;51.828;6.466;2023-04-03T08:20:46;5.90;99.90
20376;DHT22;10347;51.828;6.466;2023-04-03T08:23:12;5.90;99.90
20376;DHT22;10347;51.828;6.466;2023-04-03T08:25:40;6.00;99.90
20376;DHT22;10347;51.828;6.466;2023-04-03T08:28:06;6.00;99.90
20376;DHT22;10347;51.828;6.466;2023-04-03T08:30:33;6.10;99.90
20376;DHT22;10347;51.828;6.466;2023-04-03T08:33:01;6.10;99.90
20376;DHT22;10347;51.828;6.466;2023-04-03T08:35:27;6.20;99.90
20376;DHT22;10347;51.828;6.466;2023-04-03T08:37:53;6.30;99.90
20376;DHT22;10347;51.828;6.466;2023-04-03T08:40:18;6.30;99.90
20376;DHT22;10347;51.828;6.466;2023-04-03T08:45:33;6.40;99.90
20376;DHT22;10347;51.828;6.466;2023-04-03T08:48:08;6.40;99.90
20376;DHT22;10347;51.828;6.466;2023-04-03T08:50:40;6.50;99.90
20376;DHT22;10347;51.828;6.466;2023-04-03T08:53:17;6.50;99.90
20376;DHT22;10347;51.828;6.466;2023-04-03T08:55:46;6.60;99.90
20376;DHT22;10347;51.828;6.466;2023-04-03T08:58:15;6.60;99.90
20376;DHT22;10347;51.828;6.466;2023-04-03T09:00:51;6.70;99.90
20376;DHT22;10347;51.828;6.466;2023-04-03T09:03:21;6.80;99.90
20376;DHT22;10347;51.828;6.466;2023-04-03T09:08:51;6.80;99.90
20376;DHT22;10347;51.828;6.466;2023-04-03T09:22:02;7.30;99.90
20376;DHT22;10347;51.828;6.466;2023-04-03T09:24:28;7.30;99.90
20376;DHT22;10347;51.828;6.466;2023-04-03T09:27:00;7.40;99.90
20376;DHT22;10347;51.828;6.466;2023-04-03T09:29:27;7.50;99.90
20376;DHT22;10347;51.828;6.466;2023-04-03T09:31:59;7.50;99.90
20376;DHT22;10347;51.828;6.466;2023-04-03T09:34:45;7.60;99.90
20376;DHT22;10347;51.828;6.466;2023-04-03T09:37:34;7.70;99.90
20376;DHT22;10347;51.828;6.466;2023-04-03T09:40:01;7.80;99.90
20376;DHT22;10347;51.828;6.466;2023-04-03T09:42:30;7.90;99.90
20376;DHT22;10347;51.828;6.466;2023-04-03T09:45:03;7.90;99.90
20376;DHT22;10347;51.828;6.466;2023-04-03T09:47:36;8.00;99.90
20376;DHT22;10347;51.828;6.466;2023-04-03T09:52:37;8.00;96.00
20376;DHT22;10347;51.828;6.466;2023-04-03T09:55:22;8.10;97.20
20376;DHT22;10347;51.828;6.466;2023-04-03T09:57:57;8.20;95.00
20376;DHT22;10347;51.828;6.466;2023-04-03T10:00:26;8.30;95.90
20376;DHT22;10347;51.828;6.466;2023-04-03T10:02:55;8.40;94.30
20376;DHT22;10347;51.828;6.466;2023-04-03T10:05:38;8.40;93.60
20376;DHT22;10347;51.828;6.466;2023-04-03T10:10:45;8.60;90.90
20376;DHT22;10347;51.828;6.466;2023-04-03T10:13:18;8.60;92.20
20376;DHT22;10347;51.828;6.466;2023-04-03T10:15:54;8.70;93.20
20376;DHT22;10347;51.828;6.466;2023-04-03T10:18:44;8.70;93.10
20376;DHT22;10347;51.828;6.466;2023-04-03T10:21:40;8.80;93.80
20376;DHT22;10347;51.828;6.466;2023-04-03T10:24:20;8.90;92.40
20376;DHT22;10347;51.828;6.466;2023-04-03T10:26:57;9.00;91.10
20376;DHT22;10347;51.828;6.466;2023-04-03T10:29:51;9.00;92.20
20376;DHT22;10347;51.828;6.466;2023-04-03T10:32:35;9.10;92.70
20376;DHT22;10347;51.828;6.466;2023-04-03T10:35:10;9.10;94.50
20376;DHT22;10347;51.828;6.466;2023-04-03T10:40:35;9.30;92.20
20376;DHT22;10347;51.828;6.466;2023-04-03T10:45:55;9.40;91.90
20376;DHT22;10347;51.828;6.466;2023-04-03T10:48:56;9.50;91.80
20376;DHT22;10347;51.828;6.466;2023-04-03T10:51:42;9.50;91.50
20376;DHT22;10347;51.828;6.466;2023-04-03T10:54:25;9.60;91.70
20376;DHT22;10347;51.828;6.466;2023-04-03T10:57:06;9.60;90.50
20376;DHT22;10347;51.828;6.466;2023-04-03T10:59:49;9.70;89.10
20376;DHT22;10347;51.828;6.466;2023-04-03T11:02:30;9.70;90.40
20376;DHT22;10347;51.828;6.466;2023-04-03T11:05:18;9.70;91.10
20376;DHT22;10347;51.828;6.466;2023-04-03T11:07:49;9.80;92.90
20376;DHT22;10347;51.828;6.466;2023-04-03T11:10:25;9.90;92.20
20376;DHT22;10347;51.828;6.466;2023-04-03T11:13:32;10.00;91.70
20376;DHT22;10347;51.828;6.466;2023-04-03T11:15:51;10.10;92.70
20376;DHT22;10347;51.828;6.466;2023-04-03T11:18:43;10.10;91.70
20376;DHT22;10347;51.828;6.466;2023-04-03T11:21:17;10.10;91.30
20376;DHT22;10347;51.828;6.466;2023-04-03T11:23:46;10.20;92.50
20376;DHT22;10347;51.828;6.466;2023-04-03T11:26:14;10.30;93.00
20376;DHT22;10347;51.828;6.466;2023-04-03T11:28:41;10.40;91.70
20376;DHT22;10347;51.828;6.466;2023-04-03T11:31:36;10.40;91.90
20376;DHT22;10347;51.828;6.466;2023-04-03T11:36:51;10.30;90.10
20376;DHT22;10347;51.828;6.466;2023-04-03T11:41:48;10.50;91.80
20376;DHT22;10347;51.828;6.466;2023-04-03T11:44:36;10.50;91.30
20376;DHT22;10347;51.828;6.466;2023-04-03T11:47:04;10.60;88.90
20376;DHT22;10347;51.828;6.466;2023-04-03T11:50:04;10.50;85.60
20376;DHT22;10347;51.828;6.466;2023-04-03T11:52:54;10.50;86.20
20376;DHT22;10347;51.828;6.466;2023-04-03T12:05:54;10.70;86.20
20376;DHT22;10347;51.828;6.466;2023-04-03T12:11:15;10.70;87.80
20376;DHT22;10347;51.828;6.466;2023-04-03T12:22:04;10.70;83.40
20376;DHT22;10347;51.828;6.466;2023-04-03T12:35:21;10.90;85.40
20376;DHT22;10347;51.828;6.466;2023-04-03T12:45:25;11.00;87.30
20376;DHT22;10347;51.828;6.466;2023-04-03T12:47:53;11.10;85.80
20376;DHT22;10347;51.828;6.466;2023-04-03T12:50:30;11.10;85.20
20376;DHT22;10347;51.828;6.466;2023-04-03T12:53:00;11.10;85.30
20376;DHT22;10347;51.828;6.466;2023-04-03T12:55:27;11.20;86.00
20376;DHT22;10347;51.828;6.466;2023-04-03T12:57:53;11.20;87.80
20376;DHT22;10347;51.828;6.466;2023-04-03T13:00:33;11.30;88.40
20376;DHT22;10347;51.828;6.466;2023-04-03T13:03:01;11.40;89.40
20376;DHT22;10347;51.828;6.466;2023-04-03T13:05:28;11.50;88.00
20376;DHT22;10347;51.828;6.466;2023-04-03T13:08:02;11.50;85.30
20376;DHT22;10347;51.828;6.466;2023-04-03T13:10:28;11.50;85.60
20376;DHT22;10347;51.828;6.466;2023-04-03T13:12:57;11.50;85.30
20376;DHT22;10347;51.828;6.466;2023-04-03T13:15:29;11.50;83.60
20376;DHT22;10347;51.828;6.466;2023-04-03T13:17:56;11.50;84.20
20376;DHT22;10347;51.828;6.466;2023-04-03T13:20:27;11.50;85.30
20376;DHT22;10347;51.828;6.466;2023-04-03T13:22:57;11.50;84.20
20376;DHT22;10347;51.828;6.466;2023-04-03T13:25:28;11.50;83.10
20376;DHT22;10347;51.828;6.466;2023-04-03T13:27:55;11.50;83.70
20376;DHT22;10347;51.828;6.466;2023-04-03T13:30:32;11.50;82.90
20376;DHT22;10347;51.828;6.466;2023-04-03T13:33:02;11.50;82.20
20376;DHT22;10347;51.828;6.466;2023-04-03T13:35:39;11.40;83.70
20376;DHT22;10347;51.828;6.466;2023-04-03T13:38:23;11.40;83.00
20376;DHT22;10347;51.828;6.466;2023-04-03T13:40:55;11.40;84.40
20376;DHT22;10347;51.828;6.466;2023-04-03T13:43:27;11.40;85.60
20376;DHT22;10347;51.828;6.466;2023-04-03T13:45:59;11.40;83.50
20376;DHT22;10347;51.828;6.466;2023-04-03T13:48:26;11.40;84.60
20376;DHT22;10347;51.828;6.466;2023-04-03T13:53:20;11.50;83.50
20376;DHT22;10347;51.828;6.466;2023-04-03T13:58:26;11.50;83.60
20376;DHT22;10347;51.828;6.466;2023-04-03T14:00:54;11.40;84.30
20376;DHT22;10347;51.828;6.466;2023-04-03T14:03:25;11.50;85.60
20376;DHT22;10347;51.828;6.466;2023-04-03T14:05:52;11.50;82.50
20376;DHT22;10347;51.828;6.466;2023-04-03T14:08:18;11.50;82.70
20376;DHT22;10347;51.828;6.466;2023-04-03T14:10:44;11.50;84.90
20376;DHT22;10347;51.828;6.466;2023-04-03T14:13:14;11.50;84.30
20376;DHT22;10347;51.828;6.466;2023-04-03T14:15:41;11.40;84.40
20376;DHT22;10347;51.828;6.466;2023-04-03T14:18:12;11.40;82.80
20376;DHT22;10347;51.828;6.466;2023-04-03T14:20:39;11.40;85.40
20376;DHT22;10347;51.828;6.466;2023-04-03T14:23:05;11.50;85.40
20376;DHT22;10347;51.828;6.466;2023-04-03T14:25:31;11.60;86.00
20376;DHT22;10347;51.828;6.466;2023-04-03T14:27:57;11.50;85.50
20376;DHT22;10347;51.828;6.466;2023-04-03T14:30:31;11.50;85.40
20376;DHT22;10347;51.828;6.466;2023-04-03T14:32:57;11.50;84.00
20376;DHT22;10347;51.828;6.466;2023-04-03T14:35:25;11.50;85.60
20376;DHT22;10347;51.828;6.466;2023-04-03T14:37:52;11.50;86.00
20376;DHT22;10347;51.828;6.466;2023-04-03T14:40:24;11.60;87.50
20376;DHT22;10347;51.828;6.466;2023-04-03T14:42:50;11.70;87.80
20376;DHT22;10347;51.828;6.466;2023-04-03T14:45:17;11.80;87.80
20376;DHT22;10347;51.828;6.466;2023-04-03T14:47:52;11.70;86.00
20376;DHT22;10347;51.828;6.466;2023-04-03T14:50:24;11.70;86.60
20376;DHT22;10347;51.828;6.466;2023-04-03T14:52:52;11.60;86.80
20376;DHT22;10347;51.828;6.466;2023-04-03T14:55:20;11.60;87.70
20376;DHT22;10347;51.828;6.466;2023-04-03T14:57:46;11.60;87.00
20376;DHT22;10347;51.828;6.466;2023-04-03T15:00:20;11.60;86.40
20376;DHT22;10347;51.828;6.466;2023-04-03T15:02:46;11.60;86.10
20376;DHT22;10347;51.828;6.466;2023-04-03T15:05:13;11.60;86.40
20376;DHT22;10347;51.828;6.466;2023-04-03T15:07:52;11.50;86.90
20376;DHT22;10347;51.828;6.466;2023-04-03T15:10:20;11.60;88.10
20376;DHT22;10347;51.828;6.466;2023-04-03T15:12:48;11.70;88.80
20376;DHT22;10347;51.828;6.466;2023-04-03T15:15:18;11.60;88.30
20376;DHT22;10347;51.828;6.466;2023-04-03T15:17:45;11.60;87.60
20376;DHT22;10347;51.828;6.466;2023-04-03T15:20:20;11.60;88.20
20376;DHT22;10347;51.828;6.466;2023-04-03T15:22:46;11.60;88.00
20376;DHT22;10347;51.828;6.466;2023-04-03T15:25:12;11.60;88.40
20376;DHT22;10347;51.828;6.466;2023-04-03T15:27:38;11.60;87.60
20376;DHT22;10347;51.828;6.466;2023-04-03T15:30:05;11.60;88.30
20376;DHT22;10347;51.828;6.466;2023-04-03T15:32:31;11.50;87.30
20376;DHT22;10347;51.828;6.466;2023-04-03T15:34:58;11.50;86.70
20376;DHT22;10347;51.828;6.466;2023-04-03T15:37:24;11.50;86.60
20376;DHT22;10347;51.828;6.466;2023-04-03T15:39:50;11.40;85.10
20376;DHT22;10347;51.828;6.466;2023-04-03T15:42:16;11.30;86.50
20376;DHT22;10347;51.828;6.466;2023-04-03T15:44:41;11.30;85.80
20376;DHT22;10347;51.828;6.466;2023-04-03T15:47:07;11.30;85.90
20376;DHT22;10347;51.828;6.466;2023-04-03T15:49:33;11.30;85.10
20376;DHT22;10347;51.828;6.466;2023-04-03T15:51:59;11.30;86.60
20376;DHT22;10347;51.828;6.466;2023-04-03T15:54:25;11.40;86.70
20376;DHT22;10347;51.828;6.466;2023-04-03T15:56:52;11.30;86.60
20376;DHT22;10347;51.828;6.466;2023-04-03T15:59:18;11.40;85.80
20376;DHT22;10347;51.828;6.466;2023-04-03T16:01:43;11.30;86.10
20376;DHT22;10347;51.828;6.466;2023-04-03T16:04:09;11.30;87.30
20376;DHT22;10347;51.828;6.466;2023-04-03T16:06:36;11.30;86.40
20376;DHT22;10347;51.828;6.466;2023-04-03T16:09:03;11.30;87.50
20376;DHT22;10347;51.828;6.466;2023-04-03T16:11:29;11.20;86.60
20376;DHT22;10347;51.828;6.466;2023-04-03T16:13:55;11.20;86.20
20376;DHT22;10347;51.828;6.466;2023-04-03T16:16:21;11.10;86.50
20376;DHT22;10347;51.828;6.466;2023-04-03T16:18:47;11.20;86.30
20376;DHT22;10347;51.828;6.466;2023-04-03T16:21:14;11.10;86.60
20376;DHT22;10347;51.828;6.466;2023-04-03T16:23:41;11.10;87.20
20376;DHT22;10347;51.828;6.466;2023-04-03T16:26:06;11.20;87.20
20376;DHT22;10347;51.828;6.466;2023-04-03T16:28:32;11.10;87.30
20376;DHT22;10347;51.828;6.466;2023-04-03T16:30:58;11.10;88.30
20376;DHT22;10347;51.828;6.466;2023-04-03T16:33:24;11.10;88.70
20376;DHT22;10347;51.828;6.466;2023-04-03T16:35:50;11.10;88.90
20376;DHT22;10347;51.828;6.466;2023-04-03T16:38:17;11.10;87.30
20376;DHT22;10347;51.828;6.466;2023-04-03T16:40:44;11.00;88.00
20376;DHT22;10347;51.828;6.466;2023-04-03T16:43:10;11.10;89.30
20376;DHT22;10347;51.828;6.466;2023-04-03T16:45:36;11.10;88.70
20376;DHT22;10347;51.828;6.466;2023-04-03T16:48:01;11.10;90.00
20376;DHT22;10347;51.828;6.466;2023-04-03T16:50:27;11.10;90.30
20376;DHT22;10347;51.828;6.466;2023-04-03T16:52:52;11.00;89.40
20376;DHT22;10347;51.828;6.466;2023-04-03T16:55:18;11.00;88.80
20376;DHT22;10347;51.828;6.466;2023-04-03T16:57:44;11.00;89.30
20376;DHT22;10347;51.828;6.466;2023-04-03T17:00:10;11.00;88.10
20376;DHT22;10347;51.828;6.466;2023-04-03T17:02:35;11.00;89.30
20376;DHT22;10347;51.828;6.466;2023-04-03T17:05:01;11.10;89.80
20376;DHT22;10347;51.828;6.466;2023-04-03T17:07:26;11.20;90.40